createdAt,value
2018-06-05T00:02:04.042Z,13.80
2018-06-05T00:04:32.798Z,13.80
2018-06-05T00:07:01.578Z,13.80
2018-06-05T00:09:30.300Z,13.80
2018-06-05T00:11:59.062Z,13.80
2018-06-05T00:14:27.877Z,13.80
2018-06-05T00:16:56.642Z,13.80
2018-06-05T00:19:25.406Z,13.80
2018-06-05T00:21:54.213Z,13.70
2018-06-05T00:24:22.963Z,13.70
2018-06-05T00:26:51.759Z,13.80
2018-06-05T00:29:20.502Z,13.80
2018-06-05T00:31:49.290Z,13.80
2018-06-05T00:34:18.078Z,13.80
2018-06-05T00:36:46.853Z,13.80
2018-06-05T00:39:15.642Z,13.80
2018-06-05T00:41:44.418Z,13.70
2018-06-05T00:44:13.235Z,13.70
2018-06-05T00:46:42.006Z,13.70
2018-06-05T00:49:10.730Z,13.70
2018-06-05T00:52:16.581Z,13.80
2018-06-05T00:54:45.401Z,13.80
2018-06-05T00:57:14.189Z,13.80
2018-06-05T00:59:42.985Z,13.80
2018-06-05T01:02:12.648Z,13.80
2018-06-05T01:04:41.467Z,13.80
2018-06-05T01:07:10.287Z,13.80
2018-06-05T01:09:39.034Z,13.80
2018-06-05T01:12:07.736Z,13.90
2018-06-05T01:14:36.495Z,13.80
2018-06-05T01:17:05.297Z,13.80
2018-06-05T01:19:34.083Z,13.70
2018-06-05T01:22:02.889Z,13.70
2018-06-05T01:24:31.645Z,13.60
2018-06-05T01:27:00.414Z,13.60
2018-06-05T01:29:29.189Z,13.60
2018-06-05T01:31:57.957Z,13.60
2018-06-05T01:34:26.717Z,13.50
2018-06-05T01:36:55.516Z,13.50
2018-06-05T01:39:24.281Z,13.40
2018-06-05T01:41:53.056Z,13.40
2018-06-05T01:44:21.822Z,13.30
2018-06-05T01:46:50.608Z,13.30
2018-06-05T01:49:19.378Z,13.30
2018-06-05T01:51:48.129Z,13.20
2018-06-05T01:54:16.902Z,13.10
2018-06-05T01:56:45.702Z,13.10
2018-06-05T01:59:14.490Z,13.00
2018-06-05T02:01:43.273Z,13.00
2018-06-05T02:04:12.008Z,13.00
2018-06-05T02:06:40.806Z,12.90
2018-06-05T02:09:09.590Z,12.90
2018-06-05T02:11:38.470Z,12.90
2018-06-05T02:14:07.247Z,12.90
2018-06-05T02:16:36.011Z,12.90
2018-06-05T02:19:04.790Z,13.00
2018-06-05T02:21:33.557Z,13.00
2018-06-05T02:24:02.289Z,12.90
2018-06-05T02:26:31.054Z,12.80
2018-06-05T02:28:59.847Z,12.80
2018-06-05T02:31:28.627Z,12.80
2018-06-05T02:33:57.419Z,12.80
2018-06-05T02:36:26.221Z,12.90
2018-06-05T02:38:54.982Z,12.90
2018-06-05T02:41:23.704Z,12.90
2018-06-05T02:43:52.527Z,12.90
2018-06-05T02:46:21.271Z,13.00
2018-06-05T02:48:50.150Z,13.00
2018-06-05T02:51:18.921Z,13.00
2018-06-05T02:56:16.288Z,12.80
2018-06-05T02:58:45.094Z,10.90
2018-06-05T03:01:13.898Z,12.20
2018-06-05T03:03:42.714Z,12.00
2018-06-05T03:06:11.511Z,11.80
2018-06-05T03:08:41.141Z,11.60
2018-06-05T03:11:09.950Z,11.50
2018-06-05T03:13:38.726Z,11.30
2018-06-05T03:16:07.488Z,11.20
2018-06-05T03:18:36.254Z,11.10
2018-06-05T03:21:05.043Z,11.10
2018-06-05T03:23:33.792Z,11.00
2018-06-05T03:26:02.548Z,11.00
2018-06-05T03:28:31.318Z,11.00
2018-06-05T03:31:00.093Z,10.90
2018-06-05T03:33:28.849Z,10.90
2018-06-05T03:35:57.626Z,10.90
2018-06-05T03:38:26.432Z,10.90
2018-06-05T03:40:55.202Z,10.80
2018-06-05T03:43:24.078Z,10.80
2018-06-05T03:45:52.842Z,10.80
2018-06-05T03:48:21.634Z,10.90
2018-06-05T03:50:50.401Z,10.90
2018-06-05T03:53:19.169Z,10.90
2018-06-05T03:55:47.962Z,10.90
2018-06-05T03:58:16.745Z,10.90
2018-06-05T04:00:45.682Z,10.90
2018-06-05T04:03:14.497Z,10.80
2018-06-05T04:05:43.359Z,10.90
2018-06-05T04:08:12.122Z,10.90
2018-06-05T04:10:40.894Z,10.90
2018-06-05T04:13:09.679Z,10.90
2018-06-05T04:15:38.561Z,11.00
2018-06-05T04:18:07.317Z,11.20
2018-06-05T04:20:36.128Z,11.20
2018-06-05T04:23:04.894Z,11.20
2018-06-05T04:25:33.658Z,11.30
2018-06-05T04:28:02.423Z,11.40
2018-06-05T04:30:31.235Z,11.40
2018-06-05T04:33:00.042Z,11.50
2018-06-05T04:35:28.966Z,11.60
2018-06-05T04:37:57.734Z,11.70
2018-06-05T04:40:26.507Z,11.80
2018-06-05T04:42:55.270Z,11.80
2018-06-05T04:45:24.062Z,11.80
2018-06-05T04:50:21.210Z,11.90
2018-06-05T04:52:49.969Z,11.90
2018-06-05T04:55:18.743Z,12.00
2018-06-05T04:57:47.582Z,12.10
2018-06-05T05:00:16.359Z,12.20
2018-06-05T05:02:45.161Z,12.10
2018-06-05T05:05:13.926Z,12.00
2018-06-05T05:07:42.702Z,11.90
2018-06-05T05:10:11.489Z,11.90
2018-06-05T05:12:40.237Z,11.90
2018-06-05T05:15:09.058Z,11.90
2018-06-05T05:17:37.810Z,12.00
2018-06-05T05:20:06.668Z,12.10
2018-06-05T05:22:35.490Z,12.10
2018-06-05T05:25:04.302Z,12.20
2018-06-05T05:27:33.067Z,12.00
2018-06-05T05:30:01.947Z,12.00
2018-06-05T05:32:30.729Z,12.00
2018-06-05T05:34:59.488Z,12.00
2018-06-05T05:37:28.301Z,12.00
2018-06-05T05:39:57.058Z,12.00
2018-06-05T05:42:25.839Z,12.10
2018-06-05T05:44:54.625Z,12.10
2018-06-05T05:47:23.414Z,12.30
2018-06-05T05:49:52.198Z,12.20
2018-06-05T05:52:20.982Z,12.20
2018-06-05T05:54:49.841Z,12.40
2018-06-05T05:57:18.648Z,12.50
2018-06-05T05:59:47.610Z,12.50
2018-06-05T06:02:16.409Z,12.50
2018-06-05T06:04:45.186Z,12.70
2018-06-05T06:07:13.946Z,12.80
2018-06-05T06:09:42.726Z,12.80
2018-06-05T06:12:11.510Z,12.80
2018-06-05T06:14:40.254Z,12.60
2018-06-05T06:17:09.024Z,12.50
2018-06-05T06:19:37.805Z,12.50
2018-06-05T06:22:06.586Z,12.50
2018-06-05T06:24:35.330Z,12.40
2018-06-05T06:27:04.278Z,12.60
2018-06-05T06:29:32.997Z,12.60
2018-06-05T06:32:01.851Z,12.90
2018-06-05T06:34:30.636Z,13.10
2018-06-05T06:36:59.425Z,13.00
2018-06-05T06:39:28.206Z,12.90
2018-06-05T06:41:57.010Z,12.80
2018-06-05T06:44:25.798Z,12.90
2018-06-05T06:46:54.579Z,13.20
2018-06-05T06:49:23.345Z,13.30
2018-06-05T06:51:52.135Z,13.40
2018-06-05T06:54:20.966Z,13.50
2018-06-05T06:56:49.794Z,12.00
2018-06-05T07:01:46.993Z,12.90
2018-06-05T07:04:15.758Z,12.90
2018-06-05T07:06:44.514Z,13.10
2018-06-05T07:09:13.622Z,12.90
2018-06-05T07:11:42.393Z,12.80
2018-06-05T07:14:11.186Z,12.90
2018-06-05T07:16:40.048Z,13.10
2018-06-05T07:19:08.818Z,13.00
2018-06-05T07:21:37.606Z,13.00
2018-06-05T07:24:06.457Z,13.30
2018-06-05T07:26:35.203Z,13.60
2018-06-05T07:29:03.998Z,13.80
2018-06-05T07:31:32.780Z,14.10
2018-06-05T07:34:01.548Z,14.00
2018-06-05T07:36:30.362Z,13.80
2018-06-05T07:38:59.122Z,13.90
2018-06-05T07:41:27.891Z,13.90
2018-06-05T07:43:56.666Z,13.60
2018-06-05T07:46:25.470Z,13.40
2018-06-05T07:48:54.247Z,13.60
2018-06-05T07:51:23.003Z,13.70
2018-06-05T07:53:51.787Z,13.90
2018-06-05T07:56:20.588Z,14.10
2018-06-05T07:58:49.386Z,14.00
2018-06-05T08:01:18.188Z,14.10
2018-06-05T08:03:46.984Z,14.10
2018-06-05T08:06:15.712Z,14.00
2018-06-05T08:08:44.505Z,14.00
2018-06-05T08:11:13.281Z,14.20
2018-06-05T08:13:42.045Z,14.20
2018-06-05T08:16:10.806Z,14.20
2018-06-05T08:18:39.584Z,14.30
2018-06-05T08:21:08.356Z,14.40
2018-06-05T08:23:40.040Z,14.40
2018-06-05T08:26:08.842Z,14.50
2018-06-05T08:28:37.617Z,14.70
2018-06-05T08:31:06.401Z,14.80
2018-06-05T08:33:35.182Z,15.10
2018-06-05T08:36:03.987Z,15.50
2018-06-05T08:38:32.776Z,16.00
2018-06-05T08:41:01.544Z,16.20
2018-06-05T08:43:30.327Z,16.40
2018-06-05T08:45:59.090Z,16.60
2018-06-05T08:48:27.869Z,16.70
2018-06-05T08:53:25.018Z,16.40
2018-06-05T08:55:53.830Z,16.90
2018-06-05T08:58:22.650Z,17.50
2018-06-05T09:00:51.428Z,17.00
2018-06-05T09:03:20.199Z,16.10
2018-06-05T09:05:48.921Z,16.00
2018-06-05T09:08:17.677Z,16.40
2018-06-05T09:10:46.533Z,17.00
2018-06-05T09:13:15.290Z,17.30
2018-06-05T09:15:44.098Z,17.00
2018-06-05T09:18:12.926Z,16.00
2018-06-05T09:20:41.674Z,15.40
2018-06-05T09:23:10.434Z,15.20
2018-06-05T09:25:39.210Z,15.30
2018-06-05T09:28:08.005Z,15.60
2018-06-05T09:30:36.810Z,15.70
2018-06-05T09:33:05.586Z,15.60
2018-06-05T09:35:34.342Z,15.80
2018-06-05T09:38:03.090Z,16.30
2018-06-05T09:40:31.889Z,16.30
2018-06-05T09:43:00.674Z,16.30
2018-06-05T09:45:29.459Z,16.10
2018-06-05T09:47:58.279Z,16.30
2018-06-05T09:50:27.109Z,16.30
2018-06-05T09:52:55.893Z,16.20
2018-06-05T09:55:24.671Z,16.00
2018-06-05T09:57:53.488Z,15.80
2018-06-05T10:00:27.655Z,15.90
2018-06-05T10:02:56.498Z,15.90
2018-06-05T10:05:25.277Z,15.40
2018-06-05T10:07:54.058Z,15.30
2018-06-05T10:10:22.835Z,15.70
2018-06-05T10:12:51.595Z,15.80
2018-06-05T10:15:20.450Z,16.00
2018-06-05T10:17:49.230Z,16.50
2018-06-05T10:20:18.007Z,16.20
2018-06-05T10:22:46.799Z,16.00
2018-06-05T10:25:15.574Z,15.70
2018-06-05T10:27:44.332Z,15.50
2018-06-05T10:30:13.106Z,16.00
2018-06-05T10:32:41.878Z,16.20
2018-06-05T10:35:10.652Z,15.90
2018-06-05T10:37:39.426Z,15.50
2018-06-05T10:40:08.258Z,15.40
2018-06-05T10:42:37.022Z,15.50
2018-06-05T10:45:05.777Z,16.00
2018-06-05T10:47:34.563Z,16.60
2018-06-05T10:50:03.362Z,17.00
2018-06-05T10:52:32.146Z,17.10
2018-06-05T10:55:00.954Z,16.90
2018-06-05T10:57:29.794Z,16.90
2018-06-05T10:59:58.590Z,16.50
2018-06-05T11:02:27.378Z,16.60
2018-06-05T11:04:56.155Z,16.90
2018-06-05T11:07:25.020Z,16.90
2018-06-05T11:09:53.794Z,16.80
2018-06-05T11:12:22.678Z,16.60
2018-06-05T11:14:51.453Z,16.60
2018-06-05T11:17:20.267Z,16.50
2018-06-05T11:19:49.133Z,16.30
2018-06-05T11:22:17.941Z,16.30
2018-06-05T11:24:46.702Z,16.30
2018-06-05T11:27:15.466Z,16.40
2018-06-05T11:32:12.673Z,16.60
2018-06-05T11:34:41.481Z,16.80
2018-06-05T11:37:10.246Z,17.00
2018-06-05T11:39:39.058Z,17.20
2018-06-05T11:42:07.823Z,17.10
2018-06-05T11:44:36.596Z,16.70
2018-06-05T11:47:05.790Z,16.60
2018-06-05T11:49:34.603Z,16.70
2018-06-05T11:52:03.442Z,17.00
2018-06-05T11:54:32.238Z,17.10
2018-06-05T11:57:01.042Z,17.00
2018-06-05T11:59:29.819Z,16.90
2018-06-05T12:01:58.590Z,17.10
2018-06-05T12:04:27.374Z,17.20
2018-06-05T12:09:24.678Z,17.80
2018-06-05T12:11:53.454Z,17.60
2018-06-05T12:14:22.244Z,17.70
2018-06-05T12:16:51.006Z,18.30
2018-06-05T12:19:19.767Z,18.10
2018-06-05T12:21:48.585Z,18.50
2018-06-05T12:24:17.350Z,18.40
2018-06-05T12:26:46.186Z,18.60
2018-06-05T12:29:14.966Z,18.80
2018-06-05T12:31:43.769Z,18.50
2018-06-05T12:34:12.546Z,18.60
2018-06-05T12:36:41.295Z,18.50
2018-06-05T12:39:10.103Z,18.40
2018-06-05T12:41:38.897Z,18.70
2018-06-05T12:44:07.741Z,18.70
2018-06-05T12:46:36.566Z,18.60
2018-06-05T12:49:05.392Z,18.80
2018-06-05T12:51:34.182Z,18.40
2018-06-05T12:54:02.922Z,18.90
2018-06-05T12:56:31.695Z,19.40
2018-06-05T12:59:00.470Z,20.00
2018-06-05T13:01:29.269Z,20.30
2018-06-05T13:03:58.042Z,20.80
2018-06-05T13:06:26.803Z,20.70
2018-06-05T13:08:55.577Z,20.80
2018-06-05T13:11:24.334Z,20.80
2018-06-05T13:13:53.102Z,20.90
2018-06-05T13:16:21.915Z,20.80
2018-06-05T13:18:50.687Z,20.30
2018-06-05T13:21:19.450Z,19.70
2018-06-05T13:23:48.227Z,19.80
2018-06-05T13:26:17.254Z,20.40
2018-06-05T13:28:46.030Z,21.10
2018-06-05T13:31:14.873Z,21.50
2018-06-05T13:33:43.654Z,21.00
2018-06-05T13:36:12.449Z,21.70
2018-06-05T13:38:41.297Z,21.30
2018-06-05T13:41:10.139Z,21.00
2018-06-05T13:43:38.954Z,21.30
2018-06-05T13:46:07.784Z,21.10
2018-06-05T13:48:36.569Z,20.90
2018-06-05T13:51:05.370Z,20.40
2018-06-05T13:53:34.130Z,19.60
2018-06-05T13:56:02.912Z,20.60
2018-06-05T13:58:31.678Z,21.40
2018-06-05T14:01:00.457Z,22.20
2018-06-05T14:03:29.219Z,23.50
2018-06-05T14:05:57.998Z,23.80
2018-06-05T14:08:26.762Z,22.90
2018-06-05T14:10:55.516Z,22.60
2018-06-05T14:13:24.310Z,23.70
2018-06-05T14:15:53.048Z,24.90
2018-06-05T14:18:21.819Z,26.50
2018-06-05T14:20:50.659Z,26.40
2018-06-05T14:23:19.437Z,26.20
2018-06-05T14:25:48.226Z,25.30
2018-06-05T14:28:17.001Z,26.10
2018-06-05T14:30:45.826Z,26.80
2018-06-05T14:33:14.640Z,25.10
2018-06-05T14:35:43.502Z,23.80
2018-06-05T14:38:12.318Z,22.40
2018-06-05T14:40:41.106Z,22.30
2018-06-05T14:43:09.881Z,21.80
2018-06-05T14:45:38.695Z,22.80
2018-06-05T14:48:07.483Z,24.90
2018-06-05T14:50:36.278Z,25.20
2018-06-05T14:53:05.078Z,25.40
2018-06-05T14:55:33.850Z,25.60
2018-06-05T14:58:02.610Z,26.50
2018-06-05T15:00:31.351Z,27.40
2018-06-05T15:03:00.187Z,27.10
2018-06-05T15:05:28.999Z,27.50
2018-06-05T15:07:57.768Z,27.50
2018-06-05T15:10:26.543Z,28.70
2018-06-05T15:12:55.324Z,29.10
2018-06-05T15:15:24.119Z,29.30
2018-06-05T15:17:52.914Z,29.50
2018-06-05T15:20:21.698Z,29.10
2018-06-05T15:22:50.615Z,28.50
2018-06-05T15:25:19.400Z,28.50
2018-06-05T15:27:48.197Z,29.10
2018-06-05T15:30:16.953Z,29.30
2018-06-05T15:32:45.741Z,29.20
2018-06-05T15:35:14.526Z,28.80
2018-06-05T15:37:43.347Z,28.10
2018-06-05T15:40:12.166Z,28.00
2018-06-05T15:42:40.925Z,28.80
2018-06-05T15:45:10.734Z,28.70
2018-06-05T15:47:39.531Z,29.40
2018-06-05T15:50:08.342Z,29.40
2018-06-05T15:52:37.182Z,29.90
2018-06-05T15:55:06.004Z,28.60
2018-06-05T15:57:34.784Z,29.20
2018-06-05T16:00:03.636Z,29.30
2018-06-05T16:02:32.546Z,28.90
2018-06-05T16:05:01.324Z,29.00
2018-06-05T16:07:30.072Z,27.50
2018-06-05T16:09:58.833Z,27.40
2018-06-05T16:12:27.630Z,28.00
2018-06-05T16:14:56.401Z,27.90
2018-06-05T16:17:25.260Z,27.50
2018-06-05T16:19:54.098Z,27.90
2018-06-05T16:24:51.259Z,27.90
2018-06-05T16:27:20.114Z,27.80
2018-06-05T16:29:48.901Z,27.40
2018-06-05T16:32:17.714Z,27.30
2018-06-05T16:34:46.496Z,26.80
2018-06-05T16:37:15.330Z,27.30
2018-06-05T16:39:44.163Z,27.10
2018-06-05T16:42:13.030Z,26.70
2018-06-05T16:44:41.847Z,26.20
2018-06-05T16:47:10.664Z,26.40
2018-06-05T16:49:39.475Z,26.10
2018-06-05T16:52:08.250Z,25.70
2018-06-05T16:54:37.046Z,25.50
2018-06-05T16:57:05.821Z,25.10
2018-06-05T16:59:34.594Z,25.20
2018-06-05T17:02:03.406Z,24.50
2018-06-05T17:04:32.280Z,24.10
2018-06-05T17:07:01.038Z,24.00
2018-06-05T17:09:29.831Z,23.50
2018-06-05T17:11:58.655Z,23.20
2018-06-05T17:14:27.431Z,22.80
2018-06-05T17:16:56.189Z,22.20
2018-06-05T17:19:24.964Z,21.60
2018-06-05T17:21:54.189Z,21.10
2018-06-05T17:24:22.978Z,21.30
2018-06-05T17:26:51.740Z,20.70
2018-06-05T17:29:20.511Z,20.50
2018-06-05T17:31:49.370Z,20.70
2018-06-05T17:34:18.267Z,20.30
2018-06-05T17:36:47.062Z,20.30
2018-06-05T17:39:15.861Z,20.00
2018-06-05T17:41:44.662Z,19.30
2018-06-05T17:44:13.523Z,18.70
2018-06-05T17:46:48.898Z,18.00
2018-06-05T17:49:17.718Z,17.40
2018-06-05T17:51:46.514Z,16.90
2018-06-05T17:54:15.305Z,16.30
2018-06-05T17:56:44.073Z,15.50
2018-06-05T17:59:12.853Z,15.20
2018-06-05T18:01:41.666Z,15.10
2018-06-05T18:04:10.462Z,15.20
2018-06-05T18:06:39.275Z,15.10
2018-06-05T18:09:08.346Z,14.80
2018-06-05T18:11:37.303Z,14.50
2018-06-05T18:14:06.137Z,14.30
2018-06-05T18:16:34.924Z,14.20
2018-06-05T18:19:03.690Z,14.10
2018-06-05T18:21:32.551Z,14.00
2018-06-05T18:24:01.307Z,13.90
2018-06-05T18:26:30.050Z,13.70
2018-06-05T18:28:58.924Z,13.70
2018-06-05T18:31:27.696Z,13.40
2018-06-05T18:33:56.475Z,13.20
2018-06-05T18:36:25.277Z,13.10
2018-06-05T18:38:54.078Z,13.00
2018-06-05T18:41:22.905Z,12.70
2018-06-05T18:43:51.721Z,12.40
2018-06-05T18:46:20.619Z,12.30
2018-06-05T18:48:49.395Z,12.10
2018-06-05T18:51:18.233Z,12.00
2018-06-05T18:53:47.018Z,12.00
2018-06-05T18:56:15.829Z,11.80
2018-06-05T18:58:44.607Z,11.80
2018-06-05T19:01:13.431Z,11.80
2018-06-05T19:03:42.661Z,11.80
2018-06-05T19:06:11.474Z,11.80
2018-06-05T19:08:40.266Z,11.80
2018-06-05T19:11:09.430Z,11.70
2018-06-05T19:13:38.236Z,11.70
2018-06-05T19:16:07.050Z,11.60
2018-06-05T19:18:36.156Z,11.50
2018-06-05T19:21:04.905Z,11.20
2018-06-05T19:23:33.771Z,11.10
2018-06-05T19:26:02.535Z,11.00
2018-06-05T19:28:31.325Z,10.90
2018-06-05T19:31:00.162Z,10.80
2018-06-05T19:33:28.970Z,10.90
2018-06-05T19:35:57.756Z,10.90
2018-06-05T19:38:26.558Z,10.90
2018-06-05T19:40:55.451Z,10.80
2018-06-05T19:43:24.294Z,10.90
2018-06-05T19:45:53.114Z,10.90
2018-06-05T19:48:22.167Z,10.80
2018-06-05T19:50:51.350Z,10.90
2018-06-05T19:53:20.454Z,11.10
2018-06-05T19:55:49.637Z,11.20
2018-06-05T19:58:18.743Z,11.30
2018-06-05T20:00:47.958Z,11.20
2018-06-05T20:03:17.126Z,11.20
2018-06-05T20:05:46.994Z,11.10
2018-06-05T20:08:16.083Z,11.10
2018-06-05T20:10:45.175Z,11.10
2018-06-05T20:13:14.032Z,11.00
2018-06-05T20:15:42.837Z,11.00
2018-06-05T20:18:11.618Z,10.90
2018-06-05T20:20:40.433Z,10.80
2018-06-05T20:23:09.215Z,10.70
2018-06-05T20:25:38.274Z,10.70
2018-06-05T20:28:07.362Z,10.60
2018-06-05T20:30:36.143Z,10.50
2018-06-05T20:33:04.991Z,10.50
2018-06-05T20:35:33.766Z,10.60
2018-06-05T20:38:04.178Z,10.60
2018-06-05T20:40:33.035Z,10.70
2018-06-05T20:43:02.365Z,10.80
2018-06-05T20:45:31.545Z,10.80
2018-06-05T20:48:00.636Z,10.80
2018-06-05T20:50:29.859Z,10.80
2018-06-05T20:52:58.557Z,10.80
2018-06-05T20:55:27.330Z,10.90
2018-06-05T20:57:56.390Z,11.00
2018-06-05T21:00:25.213Z,11.00
2018-06-05T21:02:54.066Z,10.90
2018-06-05T21:05:22.886Z,11.00
2018-06-05T21:07:51.668Z,11.10
2018-06-05T21:10:20.458Z,11.20
2018-06-05T21:12:49.315Z,11.20
2018-06-05T21:15:18.114Z,11.20
2018-06-05T21:17:46.878Z,11.20
2018-06-05T21:20:15.993Z,11.00
2018-06-05T21:22:44.757Z,11.10
2018-06-05T21:25:13.771Z,11.10
2018-06-05T21:30:11.270Z,11.20
2018-06-05T21:32:40.069Z,11.30
2018-06-05T21:35:08.822Z,11.20
2018-06-05T21:37:37.587Z,11.00
2018-06-05T21:40:06.374Z,10.90
2018-06-05T21:42:35.130Z,10.60
2018-06-05T21:45:03.986Z,10.40
2018-06-05T21:47:32.961Z,10.30
2018-06-05T21:50:02.916Z,10.20
2018-06-05T21:52:31.778Z,10.00
2018-06-05T21:55:00.549Z,9.90
2018-06-05T21:57:29.306Z,9.80
2018-06-05T21:59:58.166Z,9.80
2018-06-05T22:02:26.954Z,9.90
2018-06-05T22:04:56.262Z,9.90
2018-06-05T22:07:25.426Z,10.00
2018-06-05T22:09:54.501Z,10.00
2018-06-05T22:12:23.871Z,9.90
2018-06-05T22:14:53.014Z,9.90
2018-06-05T22:17:22.105Z,9.90
2018-06-05T22:19:50.922Z,9.90
2018-06-05T22:22:19.690Z,10.00
2018-06-05T22:24:48.455Z,10.10
2018-06-05T22:27:17.572Z,10.10
2018-06-05T22:29:46.534Z,9.90
2018-06-05T22:32:15.346Z,9.80
2018-06-05T22:34:44.134Z,9.80
2018-06-05T22:37:13.214Z,9.70
2018-06-05T22:39:43.034Z,9.60
2018-06-05T22:42:12.620Z,9.60
2018-06-05T22:44:43.346Z,9.50
2018-06-05T22:47:12.115Z,9.50
2018-06-05T22:49:41.134Z,9.40
2018-06-05T22:52:09.909Z,9.50
2018-06-05T22:54:38.686Z,9.40
2018-06-05T22:57:07.419Z,9.40
2018-06-05T22:59:36.224Z,9.30
2018-06-05T23:02:05.162Z,9.30
2018-06-05T23:04:33.948Z,9.20
2018-06-05T23:07:02.743Z,9.10
2018-06-05T23:09:31.849Z,9.10
2018-06-05T23:12:00.931Z,9.00
2018-06-05T23:14:30.055Z,9.00
2018-06-05T23:16:59.123Z,8.90
2018-06-05T23:19:28.218Z,8.80
2018-06-05T23:21:57.326Z,8.80
2018-06-05T23:24:26.347Z,8.80
2018-06-05T23:26:55.648Z,8.70
2018-06-05T23:29:25.218Z,8.70
2018-06-05T23:31:54.314Z,8.70
2018-06-05T23:34:24.126Z,8.70
2018-06-05T23:36:53.135Z,8.60
2018-06-05T23:39:22.119Z,8.60
2018-06-05T23:41:51.191Z,8.60
2018-06-05T23:44:20.182Z,8.60
2018-06-05T23:46:49.166Z,8.60
2018-06-05T23:49:18.282Z,8.60
2018-06-05T23:51:47.259Z,8.50
2018-06-05T23:54:16.239Z,8.50
2018-06-05T23:56:45.249Z,8.50
2018-06-05T23:59:14.234Z,8.40
